sensor_id;sensor_type;location;lat;lon;timestamp;temperature;humidity
36856;DHT22;22788;51.434;6.786;2023-11-18T00:00:40;8.30;99.90
36856;DHT22;22788;51.434;6.786;2023-11-18T00:03:07;8.20;99.90
36856;DHT22;22788;51.434;6.786;2023-11-18T00:05:32;8.20;99.90
36856;DHT22;22788;51.434;6.786;2023-11-18T00:07:58;8.10;99.90
36856;DHT22;22788;51.434;6.786;2023-11-18T00:10:24;8.20;99.90
36856;DHT22;22788;51.434;6.786;2023-11-18T00:12:49;8.20;99.90
36856;DHT22;22788;51.434;6.786;2023-11-18T00:15:15;8.30;99.90
36856;DHT22;22788;51.434;6.786;2023-11-18T00:17:40;8.50;99.90
36856;DHT22;22788;51.434;6.786;2023-11-18T00:20:09;8.20;99.90
36856;DHT22;22788;51.434;6.786;2023-11-18T00:22:35;8.20;99.90
36856;DHT22;22788;51.434;6.786;2023-11-18T00:25:01;8.40;99.90
36856;DHT22;22788;51.434;6.786;2023-11-18T00:27:27;8.20;99.90
36856;DHT22;22788;51.434;6.786;2023-11-18T00:29:52;8.20;99.90
36856;DHT22;22788;51.434;6.786;2023-11-18T00:32:18;8.20;99.90
36856;DHT22;22788;51.434;6.786;2023-11-18T00:34:43;8.20;99.90
36856;DHT22;22788;51.434;6.786;2023-11-18T00:37:10;8.20;99.90
36856;DHT22;22788;51.434;6.786;2023-11-18T00:39:36;8.20;99.90
36856;DHT22;22788;51.434;6.786;2023-11-18T00:42:02;8.20;99.90
36856;DHT22;22788;51.434;6.786;2023-11-18T00:44:27;8.20;99.90
36856;DHT22;22788;51.434;6.786;2023-11-18T00:46:53;8.10;99.90
36856;DHT22;22788;51.434;6.786;2023-11-18T00:49:19;8.10;99.90
36856;DHT22;22788;51.434;6.786;2023-11-18T00:51:44;8.10;99.90
36856;DHT22;22788;51.434;6.786;2023-11-18T00:54:11;8.20;99.90
36856;DHT22;22788;51.434;6.786;2023-11-18T00:56:37;8.20;99.90
36856;DHT22;22788;51.434;6.786;2023-11-18T00:59:03;8.10;99.90
36856;DHT22;22788;51.434;6.786;2023-11-18T01:01:28;8.10;99.90
36856;DHT22;22788;51.434;6.786;2023-11-18T01:03:54;8.10;99.90
36856;DHT22;22788;51.434;6.786;2023-11-18T01:06:20;8.10;99.90
36856;DHT22;22788;51.434;6.786;2023-11-18T01:08:46;8.00;99.90
36856;DHT22;22788;51.434;6.786;2023-11-18T01:11:17;8.00;99.90
36856;DHT22;22788;51.434;6.786;2023-11-18T01:13:42;8.10;99.90
36856;DHT22;22788;51.434;6.786;2023-11-18T01:16:08;8.10;99.90
36856;DHT22;22788;51.434;6.786;2023-11-18T01:18:34;8.20;99.90
36856;DHT22;22788;51.434;6.786;2023-11-18T01:20:59;8.10;99.90
36856;DHT22;22788;51.434;6.786;2023-11-18T01:23:25;8.10;99.90
36856;DHT22;22788;51.434;6.786;2023-11-18T01:25:50;8.10;99.90
36856;DHT22;22788;51.434;6.786;2023-11-18T01:28:17;8.10;99.90
36856;DHT22;22788;51.434;6.786;2023-11-18T01:30:43;8.10;99.90
36856;DHT22;22788;51.434;6.786;2023-11-18T01:33:09;8.10;99.90
36856;DHT22;22788;51.434;6.786;2023-11-18T01:35:34;8.10;99.90
36856;DHT22;22788;51.434;6.786;2023-11-18T01:38:00;8.10;99.90
36856;DHT22;22788;51.434;6.786;2023-11-18T01:40:26;8.10;99.90
36856;DHT22;22788;51.434;6.786;2023-11-18T01:42:51;8.10;99.90
36856;DHT22;22788;51.434;6.786;2023-11-18T01:45:18;8.10;99.90
36856;DHT22;22788;51.434;6.786;2023-11-18T01:47:44;8.10;99.90
36856;DHT22;22788;51.434;6.786;2023-11-18T01:50:12;8.10;99.90
36856;DHT22;22788;51.434;6.786;2023-11-18T01:52:39;8.00;99.90
36856;DHT22;22788;51.434;6.786;2023-11-18T01:55:06;8.10;99.90
36856;DHT22;22788;51.434;6.786;2023-11-18T01:57:32;8.10;99.90
36856;DHT22;22788;51.434;6.786;2023-11-18T01:59:58;8.10;99.90
36856;DHT22;22788;51.434;6.786;2023-11-18T02:02:25;8.10;99.90
36856;DHT22;22788;51.434;6.786;2023-11-18T02:04:51;8.00;99.90
36856;DHT22;22788;51.434;6.786;2023-11-18T02:07:17;8.00;99.90
36856;DHT22;22788;51.434;6.786;2023-11-18T02:09:43;8.00;99.90
36856;DHT22;22788;51.434;6.786;2023-11-18T02:12:21;8.00;99.90
36856;DHT22;22788;51.434;6.786;2023-11-18T02:14:48;8.00;99.90
36856;DHT22;22788;51.434;6.786;2023-11-18T02:17:18;8.00;99.90
36856;DHT22;22788;51.434;6.786;2023-11-18T02:19:47;8.10;99.90
36856;DHT22;22788;51.434;6.786;2023-11-18T02:22:13;8.10;99.90
36856;DHT22;22788;51.434;6.786;2023-11-18T02:24:39;8.00;99.90
36856;DHT22;22788;51.434;6.786;2023-11-18T02:27:06;8.10;99.90
36856;DHT22;22788;51.434;6.786;2023-11-18T02:29:33;8.10;99.90
36856;DHT22;22788;51.434;6.786;2023-11-18T02:32:05;8.10;99.90
36856;DHT22;22788;51.434;6.786;2023-11-18T02:34:32;8.00;99.90
36856;DHT22;22788;51.434;6.786;2023-11-18T02:37:01;8.00;99.90
36856;DHT22;22788;51.434;6.786;2023-11-18T02:39:31;8.10;99.90
36856;DHT22;22788;51.434;6.786;2023-11-18T02:41:58;8.00;99.90
36856;DHT22;22788;51.434;6.786;2023-11-18T02:44:28;8.00;99.90
36856;DHT22;22788;51.434;6.786;2023-11-18T02:46:55;8.00;99.90
36856;DHT22;22788;51.434;6.786;2023-11-18T02:49:20;7.90;99.90
36856;DHT22;22788;51.434;6.786;2023-11-18T02:51:46;7.90;99.90
36856;DHT22;22788;51.434;6.786;2023-11-18T02:54:12;8.00;99.90
36856;DHT22;22788;51.434;6.786;2023-11-18T02:56:37;8.00;99.90
36856;DHT22;22788;51.434;6.786;2023-11-18T02:59:03;8.00;99.90
36856;DHT22;22788;51.434;6.786;2023-11-18T03:01:30;8.10;99.90
36856;DHT22;22788;51.434;6.786;2023-11-18T03:03:56;7.90;99.90
36856;DHT22;22788;51.434;6.786;2023-11-18T03:06:21;8.00;99.90
36856;DHT22;22788;51.434;6.786;2023-11-18T03:08:47;7.90;99.90
36856;DHT22;22788;51.434;6.786;2023-11-18T03:11:12;8.00;99.90
36856;DHT22;22788;51.434;6.786;2023-11-18T03:13:38;8.00;99.90
36856;DHT22;22788;51.434;6.786;2023-11-18T03:16:07;8.00;99.90
36856;DHT22;22788;51.434;6.786;2023-11-18T03:18:34;8.00;99.90
36856;DHT22;22788;51.434;6.786;2023-11-18T03:20:59;8.10;99.90
36856;DHT22;22788;51.434;6.786;2023-11-18T03:23:25;8.00;99.90
36856;DHT22;22788;51.434;6.786;2023-11-18T03:25:50;7.90;99.90
36856;DHT22;22788;51.434;6.786;2023-11-18T03:28:16;7.80;99.90
36856;DHT22;22788;51.434;6.786;2023-11-18T03:30:42;7.90;99.90
36856;DHT22;22788;51.434;6.786;2023-11-18T03:33:07;7.90;99.90
36856;DHT22;22788;51.434;6.786;2023-11-18T03:35:34;7.90;99.90
36856;DHT22;22788;51.434;6.786;2023-11-18T03:38:00;7.90;99.90
36856;DHT22;22788;51.434;6.786;2023-11-18T03:40:26;7.80;99.90
36856;DHT22;22788;51.434;6.786;2023-11-18T03:42:51;7.90;99.90
36856;DHT22;22788;51.434;6.786;2023-11-18T03:45:17;7.90;99.90
36856;DHT22;22788;51.434;6.786;2023-11-18T03:47:42;7.90;99.90
36856;DHT22;22788;51.434;6.786;2023-11-18T03:50:09;7.90;99.90
36856;DHT22;22788;51.434;6.786;2023-11-18T03:52:37;7.90;99.90
36856;DHT22;22788;51.434;6.786;2023-11-18T03:55:03;7.90;99.90
36856;DHT22;22788;51.434;6.786;2023-11-18T03:57:28;7.90;99.90
36856;DHT22;22788;51.434;6.786;2023-11-18T03:59:54;7.90;99.90
36856;DHT22;22788;51.434;6.786;2023-11-18T04:02:19;7.90;99.90
36856;DHT22;22788;51.434;6.786;2023-11-18T04:04:45;7.90;99.90
36856;DHT22;22788;51.434;6.786;2023-11-18T04:07:11;7.90;99.90
36856;DHT22;22788;51.434;6.786;2023-11-18T04:09:38;7.90;99.90
36856;DHT22;22788;51.434;6.786;2023-11-18T04:12:03;7.90;99.90
36856;DHT22;22788;51.434;6.786;2023-11-18T04:14:29;7.90;99.90
36856;DHT22;22788;51.434;6.786;2023-11-18T04:16:55;8.00;99.90
36856;DHT22;22788;51.434;6.786;2023-11-18T04:19:21;8.00;99.90
36856;DHT22;22788;51.434;6.786;2023-11-18T04:21:47;8.00;99.90
36856;DHT22;22788;51.434;6.786;2023-11-18T04:24:12;8.00;99.90
36856;DHT22;22788;51.434;6.786;2023-11-18T04:26:39;8.00;99.90
36856;DHT22;22788;51.434;6.786;2023-11-18T04:29:05;8.00;99.90
36856;DHT22;22788;51.434;6.786;2023-11-18T04:31:30;8.00;99.90
36856;DHT22;22788;51.434;6.786;2023-11-18T04:33:56;7.90;99.90
36856;DHT22;22788;51.434;6.786;2023-11-18T04:36:22;7.90;99.90
36856;DHT22;22788;51.434;6.786;2023-11-18T04:38:48;7.90;99.90
36856;DHT22;22788;51.434;6.786;2023-11-18T04:41:13;8.00;99.90
36856;DHT22;22788;51.434;6.786;2023-11-18T04:43:40;8.00;99.90
36856;DHT22;22788;51.434;6.786;2023-11-18T04:46:06;7.90;99.90
36856;DHT22;22788;51.434;6.786;2023-11-18T04:48:32;7.90;99.90
36856;DHT22;22788;51.434;6.786;2023-11-18T04:50:57;7.90;99.90
36856;DHT22;22788;51.434;6.786;2023-11-18T04:53:23;7.90;99.90
36856;DHT22;22788;51.434;6.786;2023-11-18T04:55:49;7.90;99.90
36856;DHT22;22788;51.434;6.786;2023-11-18T04:58:14;7.90;99.90
36856;DHT22;22788;51.434;6.786;2023-11-18T05:00:41;7.90;99.90
36856;DHT22;22788;51.434;6.786;2023-11-18T05:03:07;7.90;99.90
36856;DHT22;22788;51.434;6.786;2023-11-18T05:05:33;7.90;99.90
36856;DHT22;22788;51.434;6.786;2023-11-18T05:07:58;7.90;99.90
36856;DHT22;22788;51.434;6.786;2023-11-18T05:10:24;7.90;99.90
36856;DHT22;22788;51.434;6.786;2023-11-18T05:12:49;7.90;99.90
36856;DHT22;22788;51.434;6.786;2023-11-18T05:15:15;7.90;99.90
36856;DHT22;22788;51.434;6.786;2023-11-18T05:17:42;7.80;99.90
36856;DHT22;22788;51.434;6.786;2023-11-18T05:20:08;7.80;99.90
36856;DHT22;22788;51.434;6.786;2023-11-18T05:22:33;7.80;99.90
36856;DHT22;22788;51.434;6.786;2023-11-18T05:24:59;7.90;99.90
36856;DHT22;22788;51.434;6.786;2023-11-18T05:27:25;7.80;99.90
36856;DHT22;22788;51.434;6.786;2023-11-18T05:29:50;7.80;99.90
36856;DHT22;22788;51.434;6.786;2023-11-18T05:32:16;7.80;99.90
36856;DHT22;22788;51.434;6.786;2023-11-18T05:34:43;7.70;99.90
36856;DHT22;22788;51.434;6.786;2023-11-18T05:37:09;7.80;99.90
36856;DHT22;22788;51.434;6.786;2023-11-18T05:39:34;7.40;99.90
36856;DHT22;22788;51.434;6.786;2023-11-18T05:42:00;7.80;99.90
36856;DHT22;22788;51.434;6.786;2023-11-18T05:44:26;8.20;99.90
36856;DHT22;22788;51.434;6.786;2023-11-18T05:46:51;7.80;99.90
36856;DHT22;22788;51.434;6.786;2023-11-18T05:49:17;7.90;99.90
36856;DHT22;22788;51.434;6.786;2023-11-18T05:51:45;7.80;99.90
36856;DHT22;22788;51.434;6.786;2023-11-18T05:54:11;7.80;99.90
36856;DHT22;22788;51.434;6.786;2023-11-18T05:56:36;7.80;99.90
36856;DHT22;22788;51.434;6.786;2023-11-18T05:59:02;7.80;99.90
36856;DHT22;22788;51.434;6.786;2023-11-18T06:01:29;7.80;99.90
36856;DHT22;22788;51.434;6.786;2023-11-18T06:03:55;7.80;99.90
36856;DHT22;22788;51.434;6.786;2023-11-18T06:06:20;7.80;99.90
36856;DHT22;22788;51.434;6.786;2023-11-18T06:08:48;7.80;99.90
36856;DHT22;22788;51.434;6.786;2023-11-18T06:11:15;7.80;99.90
36856;DHT22;22788;51.434;6.786;2023-11-18T06:13:42;7.80;99.90
36856;DHT22;22788;51.434;6.786;2023-11-18T06:16:09;7.80;99.90
36856;DHT22;22788;51.434;6.786;2023-11-18T06:18:54;7.90;99.90
36856;DHT22;22788;51.434;6.786;2023-11-18T06:21:21;7.90;99.90
36856;DHT22;22788;51.434;6.786;2023-11-18T06:23:49;7.80;99.90
36856;DHT22;22788;51.434;6.786;2023-11-18T06:26:15;7.80;99.90
36856;DHT22;22788;51.434;6.786;2023-11-18T06:28:42;7.80;99.90
36856;DHT22;22788;51.434;6.786;2023-11-18T06:31:08;7.80;99.90
36856;DHT22;22788;51.434;6.786;2023-11-18T06:33:36;7.80;99.90
36856;DHT22;22788;51.434;6.786;2023-11-18T06:36:02;7.70;99.90
36856;DHT22;22788;51.434;6.786;2023-11-18T06:38:27;7.80;99.90
36856;DHT22;22788;51.434;6.786;2023-11-18T06:40:54;7.90;99.90
36856;DHT22;22788;51.434;6.786;2023-11-18T06:43:20;7.90;99.90
36856;DHT22;22788;51.434;6.786;2023-11-18T06:45:46;7.90;99.90
36856;DHT22;22788;51.434;6.786;2023-11-18T06:48:11;7.80;99.90
36856;DHT22;22788;51.434;6.786;2023-11-18T06:50:37;7.80;99.90
36856;DHT22;22788;51.434;6.786;2023-11-18T06:53:03;7.80;99.90
36856;DHT22;22788;51.434;6.786;2023-11-18T06:55:28;7.80;99.90
36856;DHT22;22788;51.434;6.786;2023-11-18T06:57:55;7.80;99.90
36856;DHT22;22788;51.434;6.786;2023-11-18T07:00:21;7.70;99.90
36856;DHT22;22788;51.434;6.786;2023-11-18T07:02:47;7.80;99.90
36856;DHT22;22788;51.434;6.786;2023-11-18T07:05:12;7.80;99.90
36856;DHT22;22788;51.434;6.786;2023-11-18T07:07:38;7.80;99.90
36856;DHT22;22788;51.434;6.786;2023-11-18T07:10:05;7.80;99.90
36856;DHT22;22788;51.434;6.786;2023-11-18T07:12:32;7.80;99.90
36856;DHT22;22788;51.434;6.786;2023-11-18T07:14:59;7.80;99.90
36856;DHT22;22788;51.434;6.786;2023-11-18T07:17:24;7.90;99.90
36856;DHT22;22788;51.434;6.786;2023-11-18T07:19:50;7.90;99.90
36856;DHT22;22788;51.434;6.786;2023-11-18T07:22:16;7.90;99.90
36856;DHT22;22788;51.434;6.786;2023-11-18T07:24:41;7.80;99.90
36856;DHT22;22788;51.434;6.786;2023-11-18T07:27:07;7.80;99.90
36856;DHT22;22788;51.434;6.786;2023-11-18T07:29:32;7.70;99.90
36856;DHT22;22788;51.434;6.786;2023-11-18T07:31:59;7.80;99.90
36856;DHT22;22788;51.434;6.786;2023-11-18T07:34:25;7.80;99.90
36856;DHT22;22788;51.434;6.786;2023-11-18T07:36:51;7.90;99.90
36856;DHT22;22788;51.434;6.786;2023-11-18T07:39:16;7.80;99.90
36856;DHT22;22788;51.434;6.786;2023-11-18T07:41:42;7.90;99.90
36856;DHT22;22788;51.434;6.786;2023-11-18T07:44:08;7.90;99.90
36856;DHT22;22788;51.434;6.786;2023-11-18T07:46:33;7.90;99.90
36856;DHT22;22788;51.434;6.786;2023-11-18T07:49:00;7.80;99.90
36856;DHT22;22788;51.434;6.786;2023-11-18T07:51:26;7.90;99.90
36856;DHT22;22788;51.434;6.786;2023-11-18T07:53:52;7.80;99.90
36856;DHT22;22788;51.434;6.786;2023-11-18T07:56:17;7.90;99.90
36856;DHT22;22788;51.434;6.786;2023-11-18T07:58:43;7.90;99.90
36856;DHT22;22788;51.434;6.786;2023-11-18T08:01:09;7.80;99.90
36856;DHT22;22788;51.434;6.786;2023-11-18T08:03:35;7.80;99.90
36856;DHT22;22788;51.434;6.786;2023-11-18T08:06:02;7.80;99.90
36856;DHT22;22788;51.434;6.786;2023-11-18T08:08:27;7.80;99.90
36856;DHT22;22788;51.434;6.786;2023-11-18T08:10:53;7.80;99.90
36856;DHT22;22788;51.434;6.786;2023-11-18T08:13:19;7.80;99.90
36856;DHT22;22788;51.434;6.786;2023-11-18T08:15:44;7.90;99.90
36856;DHT22;22788;51.434;6.786;2023-11-18T08:18:10;7.80;99.90
36856;DHT22;22788;51.434;6.786;2023-11-18T08:20:36;7.80;99.90
36856;DHT22;22788;51.434;6.786;2023-11-18T08:23:03;7.90;99.90
36856;DHT22;22788;51.434;6.786;2023-11-18T08:25:29;7.80;99.90
36856;DHT22;22788;51.434;6.786;2023-11-18T08:27:55;7.80;99.90
36856;DHT22;22788;51.434;6.786;2023-11-18T08:30:20;7.80;99.90
36856;DHT22;22788;51.434;6.786;2023-11-18T08:32:46;7.80;99.90
36856;DHT22;22788;51.434;6.786;2023-11-18T08:35:12;7.80;99.90
36856;DHT22;22788;51.434;6.786;2023-11-18T08:37:38;7.80;99.90
36856;DHT22;22788;51.434;6.786;2023-11-18T08:40:07;7.80;99.90
36856;DHT22;22788;51.434;6.786;2023-11-18T08:42:33;7.90;99.90
36856;DHT22;22788;51.434;6.786;2023-11-18T08:44:58;7.80;99.90
36856;DHT22;22788;51.434;6.786;2023-11-18T08:47:24;7.80;99.90
36856;DHT22;22788;51.434;6.786;2023-11-18T08:49:50;7.80;99.90
36856;DHT22;22788;51.434;6.786;2023-11-18T08:52:15;7.90;99.90
36856;DHT22;22788;51.434;6.786;2023-11-18T08:54:41;7.80;99.90
36856;DHT22;22788;51.434;6.786;2023-11-18T08:57:08;7.80;99.90
36856;DHT22;22788;51.434;6.786;2023-11-18T08:59:33;7.80;99.90
36856;DHT22;22788;51.434;6.786;2023-11-18T09:01:59;7.80;99.90
36856;DHT22;22788;51.434;6.786;2023-11-18T09:04:24;7.90;99.90
36856;DHT22;22788;51.434;6.786;2023-11-18T09:06:50;7.80;99.90
36856;DHT22;22788;51.434;6.786;2023-11-18T09:09:16;7.90;99.90
36856;DHT22;22788;51.434;6.786;2023-11-18T09:11:41;7.90;99.90
36856;DHT22;22788;51.434;6.786;2023-11-18T09:14:08;7.80;99.90
36856;DHT22;22788;51.434;6.786;2023-11-18T09:16:34;7.90;99.90
36856;DHT22;22788;51.434;6.786;2023-11-18T09:19:00;7.90;99.90
36856;DHT22;22788;51.434;6.786;2023-11-18T09:21:25;8.20;99.90
36856;DHT22;22788;51.434;6.786;2023-11-18T09:23:51;7.90;99.90
36856;DHT22;22788;51.434;6.786;2023-11-18T09:26:17;7.90;99.90
36856;DHT22;22788;51.434;6.786;2023-11-18T09:28:43;7.90;99.90
36856;DHT22;22788;51.434;6.786;2023-11-18T09:31:10;7.80;99.90
36856;DHT22;22788;51.434;6.786;2023-11-18T09:33:36;7.90;99.90
36856;DHT22;22788;51.434;6.786;2023-11-18T09:36:03;7.80;99.90
36856;DHT22;22788;51.434;6.786;2023-11-18T09:38:30;7.90;99.90
36856;DHT22;22788;51.434;6.786;2023-11-18T09:40:56;7.90;99.90
36856;DHT22;22788;51.434;6.786;2023-11-18T09:43:23;7.90;99.90
36856;DHT22;22788;51.434;6.786;2023-11-18T09:45:54;7.90;99.90
36856;DHT22;22788;51.434;6.786;2023-11-18T09:48:21;7.90;99.90
36856;DHT22;22788;51.434;6.786;2023-11-18T09:50:48;7.90;99.90
36856;DHT22;22788;51.434;6.786;2023-11-18T09:53:17;7.90;99.90
36856;DHT22;22788;51.434;6.786;2023-11-18T09:55:49;7.90;99.90
36856;DHT22;22788;51.434;6.786;2023-11-18T09:58:17;7.90;99.90
36856;DHT22;22788;51.434;6.786;2023-11-18T10:00:43;7.90;99.90
36856;DHT22;22788;51.434;6.786;2023-11-18T10:03:10;7.90;99.90
36856;DHT22;22788;51.434;6.786;2023-11-18T10:05:39;7.90;99.90
36856;DHT22;22788;51.434;6.786;2023-11-18T10:08:05;7.90;99.90
36856;DHT22;22788;51.434;6.786;2023-11-18T10:10:31;7.90;99.90
36856;DHT22;22788;51.434;6.786;2023-11-18T10:12:57;8.00;99.90
36856;DHT22;22788;51.434;6.786;2023-11-18T10:15:24;8.00;99.90
36856;DHT22;22788;51.434;6.786;2023-11-18T10:17:51;8.00;99.90
36856;DHT22;22788;51.434;6.786;2023-11-18T10:20:17;8.00;99.90
36856;DHT22;22788;51.434;6.786;2023-11-18T10:22:44;7.90;99.90
36856;DHT22;22788;51.434;6.786;2023-11-18T10:25:10;8.00;99.90
36856;DHT22;22788;51.434;6.786;2023-11-18T10:27:35;8.00;99.90
36856;DHT22;22788;51.434;6.786;2023-11-18T10:30:03;8.00;99.90
36856;DHT22;22788;51.434;6.786;2023-11-18T10:32:29;8.00;99.90
36856;DHT22;22788;51.434;6.786;2023-11-18T10:34:55;8.10;99.90
36856;DHT22;22788;51.434;6.786;2023-11-18T10:37:21;8.10;99.90
36856;DHT22;22788;51.434;6.786;2023-11-18T10:39:49;8.00;99.90
36856;DHT22;22788;51.434;6.786;2023-11-18T10:42:14;8.10;99.90
36856;DHT22;22788;51.434;6.786;2023-11-18T10:44:54;8.00;99.90
36856;DHT22;22788;51.434;6.786;2023-11-18T10:47:20;8.00;99.90
36856;DHT22;22788;51.434;6.786;2023-11-18T10:49:45;8.00;99.90
36856;DHT22;22788;51.434;6.786;2023-11-18T10:52:11;8.00;99.90
36856;DHT22;22788;51.434;6.786;2023-11-18T10:54:37;8.00;99.90
36856;DHT22;22788;51.434;6.786;2023-11-18T10:57:04;8.00;99.90
36856;DHT22;22788;51.434;6.786;2023-11-18T10:59:30;8.10;99.90
36856;DHT22;22788;51.434;6.786;2023-11-18T11:01:56;8.10;99.90
36856;DHT22;22788;51.434;6.786;2023-11-18T11:04:21;8.20;99.90
36856;DHT22;22788;51.434;6.786;2023-11-18T11:06:48;8.10;99.90
36856;DHT22;22788;51.434;6.786;2023-11-18T11:09:14;8.10;99.90
36856;DHT22;22788;51.434;6.786;2023-11-18T11:11:46;8.10;99.90
36856;DHT22;22788;51.434;6.786;2023-11-18T11:14:15;8.20;99.90
36856;DHT22;22788;51.434;6.786;2023-11-18T11:16:42;8.20;99.90
36856;DHT22;22788;51.434;6.786;2023-11-18T11:19:17;8.20;99.90
36856;DHT22;22788;51.434;6.786;2023-11-18T11:21:52;8.10;99.90
36856;DHT22;22788;51.434;6.786;2023-11-18T11:24:31;8.10;99.90
36856;DHT22;22788;51.434;6.786;2023-11-18T11:27:07;8.10;99.90
36856;DHT22;22788;51.434;6.786;2023-11-18T11:29:49;8.10;99.90
36856;DHT22;22788;51.434;6.786;2023-11-18T11:32:21;8.20;99.90
36856;DHT22;22788;51.434;6.786;2023-11-18T11:34:53;8.20;99.90
36856;DHT22;22788;51.434;6.786;2023-11-18T11:37:19;8.20;99.90
36856;DHT22;22788;51.434;6.786;2023-11-18T11:39:49;8.20;99.90
36856;DHT22;22788;51.434;6.786;2023-11-18T11:42:17;8.20;99.90
36856;DHT22;22788;51.434;6.786;2023-11-18T11:44:46;8.20;99.90
36856;DHT22;22788;51.434;6.786;2023-11-18T11:47:12;8.20;99.90
36856;DHT22;22788;51.434;6.786;2023-11-18T11:49:44;8.20;99.90
36856;DHT22;22788;51.434;6.786;2023-11-18T11:52:23;8.20;99.90
36856;DHT22;22788;51.434;6.786;2023-11-18T11:54:56;8.30;99.90
36856;DHT22;22788;51.434;6.786;2023-11-18T11:57:24;8.20;99.90
36856;DHT22;22788;51.434;6.786;2023-11-18T11:59:57;8.20;99.90
36856;DHT22;22788;51.434;6.786;2023-11-18T12:02:24;8.20;99.90
36856;DHT22;22788;51.434;6.786;2023-11-18T12:04:51;8.20;99.90
36856;DHT22;22788;51.434;6.786;2023-11-18T12:07:16;8.20;99.90
36856;DHT22;22788;51.434;6.786;2023-11-18T12:09:42;8.20;99.90
36856;DHT22;22788;51.434;6.786;2023-11-18T12:12:17;8.20;99.90
36856;DHT22;22788;51.434;6.786;2023-11-18T12:14:49;8.30;99.90
36856;DHT22;22788;51.434;6.786;2023-11-18T12:17:17;8.20;99.90
36856;DHT22;22788;51.434;6.786;2023-11-18T12:19:42;8.20;99.90
36856;DHT22;22788;51.434;6.786;2023-11-18T12:22:08;8.30;99.90
36856;DHT22;22788;51.434;6.786;2023-11-18T12:24:34;8.30;99.90
36856;DHT22;22788;51.434;6.786;2023-11-18T12:26:59;8.30;99.90
36856;DHT22;22788;51.434;6.786;2023-11-18T12:29:31;8.20;99.90
36856;DHT22;22788;51.434;6.786;2023-11-18T12:31:57;8.20;99.90
36856;DHT22;22788;51.434;6.786;2023-11-18T12:34:24;8.20;99.90
36856;DHT22;22788;51.434;6.786;2023-11-18T12:37:02;8.20;99.90
36856;DHT22;22788;51.434;6.786;2023-11-18T12:40:20;8.30;99.90
36856;DHT22;22788;51.434;6.786;2023-11-18T12:43:01;8.30;99.90
36856;DHT22;22788;51.434;6.786;2023-11-18T12:46:08;8.30;99.90
36856;DHT22;22788;51.434;6.786;2023-11-18T12:48:43;8.20;99.90
36856;DHT22;22788;51.434;6.786;2023-11-18T12:51:10;8.30;99.90
36856;DHT22;22788;51.434;6.786;2023-11-18T12:53:37;8.30;99.90
36856;DHT22;22788;51.434;6.786;2023-11-18T12:56:03;8.30;99.90
36856;DHT22;22788;51.434;6.786;2023-11-18T12:58:30;8.30;99.90
36856;DHT22;22788;51.434;6.786;2023-11-18T13:00:56;8.30;99.90
36856;DHT22;22788;51.434;6.786;2023-11-18T13:03:21;8.30;99.90
36856;DHT22;22788;51.434;6.786;2023-11-18T13:05:47;8.30;99.90
36856;DHT22;22788;51.434;6.786;2023-11-18T13:08:14;8.30;99.90
36856;DHT22;22788;51.434;6.786;2023-11-18T13:10:40;8.30;99.90
36856;DHT22;22788;51.434;6.786;2023-11-18T13:13:05;8.30;99.90
36856;DHT22;22788;51.434;6.786;2023-11-18T13:15:31;8.30;99.90
36856;DHT22;22788;51.434;6.786;2023-11-18T13:17:58;8.30;99.90
36856;DHT22;22788;51.434;6.786;2023-11-18T13:20:24;8.30;99.90
36856;DHT22;22788;51.434;6.786;2023-11-18T13:22:49;8.30;99.90
36856;DHT22;22788;51.434;6.786;2023-11-18T13:25:17;8.30;99.90
36856;DHT22;22788;51.434;6.786;2023-11-18T13:27:42;8.40;99.90
36856;DHT22;22788;51.434;6.786;2023-11-18T13:30:09;8.40;99.90
36856;DHT22;22788;51.434;6.786;2023-11-18T13:32:35;8.30;99.90
36856;DHT22;22788;51.434;6.786;2023-11-18T13:35:01;8.40;99.90
36856;DHT22;22788;51.434;6.786;2023-11-18T13:37:27;8.40;99.90
36856;DHT22;22788;51.434;6.786;2023-11-18T13:39:55;8.40;99.90
36856;DHT22;22788;51.434;6.786;2023-11-18T13:42:24;8.40;99.90
36856;DHT22;22788;51.434;6.786;2023-11-18T13:44:50;8.40;99.90
36856;DHT22;22788;51.434;6.786;2023-11-18T13:47:17;8.40;99.90
36856;DHT22;22788;51.434;6.786;2023-11-18T13:49:43;8.40;99.90
36856;DHT22;22788;51.434;6.786;2023-11-18T13:52:09;8.30;99.90
36856;DHT22;22788;51.434;6.786;2023-11-18T13:54:35;8.30;99.90
36856;DHT22;22788;51.434;6.786;2023-11-18T13:57:00;8.40;99.90
36856;DHT22;22788;51.434;6.786;2023-11-18T13:59:28;8.40;99.90
36856;DHT22;22788;51.434;6.786;2023-11-18T14:01:54;8.40;99.90
36856;DHT22;22788;51.434;6.786;2023-11-18T14:04:22;8.40;99.90
36856;DHT22;22788;51.434;6.786;2023-11-18T14:06:50;8.40;99.90
36856;DHT22;22788;51.434;6.786;2023-11-18T14:09:16;8.40;99.90
36856;DHT22;22788;51.434;6.786;2023-11-18T14:11:42;8.40;99.90
36856;DHT22;22788;51.434;6.786;2023-11-18T14:14:07;8.40;99.90
36856;DHT22;22788;51.434;6.786;2023-11-18T14:16:34;8.40;99.90
36856;DHT22;22788;51.434;6.786;2023-11-18T14:19:00;8.40;99.90
36856;DHT22;22788;51.434;6.786;2023-11-18T14:21:26;8.40;99.90
36856;DHT22;22788;51.434;6.786;2023-11-18T14:23:51;8.40;99.90
36856;DHT22;22788;51.434;6.786;2023-11-18T14:26:17;8.40;99.90
36856;DHT22;22788;51.434;6.786;2023-11-18T14:28:42;8.40;99.90
36856;DHT22;22788;51.434;6.786;2023-11-18T14:31:08;8.40;99.90
36856;DHT22;22788;51.434;6.786;2023-11-18T14:33:35;8.40;99.90
36856;DHT22;22788;51.434;6.786;2023-11-18T14:36:01;8.40;99.90
36856;DHT22;22788;51.434;6.786;2023-11-18T14:38:26;8.40;99.90
36856;DHT22;22788;51.434;6.786;2023-11-18T14:40:52;8.40;99.90
36856;DHT22;22788;51.434;6.786;2023-11-18T14:43:18;8.40;99.90
36856;DHT22;22788;51.434;6.786;2023-11-18T14:45:43;8.50;99.90
36856;DHT22;22788;51.434;6.786;2023-11-18T14:48:28;8.40;99.90
36856;DHT22;22788;51.434;6.786;2023-11-18T14:50:56;8.40;99.90
36856;DHT22;22788;51.434;6.786;2023-11-18T14:53:21;8.70;99.90
36856;DHT22;22788;51.434;6.786;2023-11-18T14:55:47;8.40;99.90
36856;DHT22;22788;51.434;6.786;2023-11-18T14:58:12;8.40;99.90
36856;DHT22;22788;51.434;6.786;2023-11-18T15:00:38;8.50;99.90
36856;DHT22;22788;51.434;6.786;2023-11-18T15:03:04;8.40;99.90
36856;DHT22;22788;51.434;6.786;2023-11-18T15:05:30;8.70;99.90
36856;DHT22;22788;51.434;6.786;2023-11-18T15:07:57;8.40;99.90
36856;DHT22;22788;51.434;6.786;2023-11-18T15:10:24;8.40;99.90
36856;DHT22;22788;51.434;6.786;2023-11-18T15:12:51;8.40;99.90
36856;DHT22;22788;51.434;6.786;2023-11-18T15:15:17;8.40;99.90
36856;DHT22;22788;51.434;6.786;2023-11-18T15:17:44;8.40;99.90
36856;DHT22;22788;51.434;6.786;2023-11-18T15:20:10;8.50;99.90
36856;DHT22;22788;51.434;6.786;2023-11-18T15:22:38;8.50;99.90
36856;DHT22;22788;51.434;6.786;2023-11-18T15:25:06;8.50;99.90
36856;DHT22;22788;51.434;6.786;2023-11-18T15:27:31;8.50;99.90
36856;DHT22;22788;51.434;6.786;2023-11-18T15:29:57;8.40;99.90
36856;DHT22;22788;51.434;6.786;2023-11-18T15:32:22;8.40;99.90
36856;DHT22;22788;51.434;6.786;2023-11-18T15:34:48;8.40;99.90
36856;DHT22;22788;51.434;6.786;2023-11-18T15:37:14;8.40;99.90
36856;DHT22;22788;51.434;6.786;2023-11-18T15:39:39;8.40;99.90
36856;DHT22;22788;51.434;6.786;2023-11-18T15:42:06;8.50;99.90